Time;durP1;ratioP1;P1;durP2;ratioP2;P2;SDS_P1;SDS_P2;PMS_P1;PMS_P2;Temp;Humidity;BMP_temperature;BMP_pressure;BME280_temperature;BME280_humidity;BME280_pressure;Samples;Min_cycle;Max_cycle;Signal;HPM_P1;HPM_P2
2023/09/08 00:02:06;;;;;;;8.98;7.47;;;;;;;;;;5024584;28;20190;-74
2023/09/08 00:04:35;;;;;;;10.07;7.10;;;;;;;;;;5027415;28;20190;-74
2023/09/08 00:07:00;;;;;;;9.45;6.80;;;;;;;;;;5023604;28;20695;-74
2023/09/08 00:09:26;;;;;;;10.50;7.20;;;;;;;;;;5022103;28;20191;-74
2023/09/08 00:11:52;;;;;;;10.43;7.50;;;;;;;;;;5024683;28;20236;-74
2023/09/08 00:14:17;;;;;;;9.27;7.90;;;;;;;;;;5029253;28;20419;-74
2023/09/08 00:16:43;;;;;;;10.32;7.50;;;;;;;;;;5046683;28;20228;-74
2023/09/08 00:19:10;;;;;;;11.50;7.93;;;;;;;;;;5028554;28;20195;-74
2023/09/08 00:21:36;;;;;;;10.13;8.20;;;;;;;;;;5033119;28;20277;-74
2023/09/08 00:24:01;;;;;;;9.75;7.85;;;;;;;;;;5018234;28;20543;-74
2023/09/08 00:26:27;;;;;;;10.65;7.63;;;;;;;;;;5019298;28;20198;-74
2023/09/08 00:28:52;;;;;;;9.95;7.40;;;;;;;;;;5021014;28;20194;-75
2023/09/08 00:31:17;;;;;;;9.90;8.05;;;;;;;;;;5017257;28;20610;-73
2023/09/08 00:33:43;;;;;;;8.82;7.25;;;;;;;;;;5021843;28;20202;-74
2023/09/08 00:36:09;;;;;;;9.07;7.65;;;;;;;;;;5018390;28;20197;-74
2023/09/08 00:38:35;;;;;;;8.95;7.60;;;;;;;;;;5042777;28;20284;-74
2023/09/08 00:41:00;;;;;;;9.45;7.53;;;;;;;;;;5031255;28;20190;-74
2023/09/08 00:43:26;;;;;;;10.43;7.72;;;;;;;;;;5030236;28;20310;-73
2023/09/08 00:45:53;;;;;;;14.55;8.13;;;;;;;;;;5016190;28;20245;-74
2023/09/08 00:48:18;;;;;;;9.40;7.63;;;;;;;;;;5025293;28;20218;-75
2023/09/08 00:50:44;;;;;;;15.60;8.40;;;;;;;;;;5015550;28;20700;-73
2023/09/08 00:53:10;;;;;;;13.50;8.73;;;;;;;;;;5023260;28;20197;-74
2023/09/08 00:55:35;;;;;;;9.65;7.93;;;;;;;;;;5014029;28;20198;-74
2023/09/08 00:58:02;;;;;;;10.88;8.63;;;;;;;;;;5014076;28;20182;-74
2023/09/08 01:00:27;;;;;;;11.02;8.20;;;;;;;;;;5025332;28;20201;-74
2023/09/08 01:02:53;;;;;;;10.07;8.30;;;;;;;;;;5017078;28;20206;-74
2023/09/08 01:05:20;;;;;;;16.58;9.35;;;;;;;;;;5039216;28;20280;-73
2023/09/08 01:07:47;;;;;;;11.30;8.63;;;;;;;;;;5017806;28;20221;-74
2023/09/08 01:10:13;;;;;;;10.50;8.13;;;;;;;;;;5023098;28;20196;-74
2023/09/08 01:12:39;;;;;;;9.38;7.53;;;;;;;;;;5025460;28;20239;-73
2023/09/08 01:15:06;;;;;;;9.43;7.82;;;;;;;;;;4997522;28;20187;-74
2023/09/08 01:17:32;;;;;;;10.10;8.35;;;;;;;;;;5022097;28;20238;-73
2023/09/08 01:20:07;;;;;;;13.63;9.25;;;;;;;;;;5024282;28;20198;-74
2023/09/08 01:22:55;;;;;;;9.38;8.25;;;;;;;;;;5028250;28;20209;-74
2023/09/08 01:25:25;;;;;;;12.25;9.48;;;;;;;;;;5026533;28;20289;-74
2023/09/08 01:27:53;;;;;;;11.18;9.45;;;;;;;;;;5027269;28;20566;-74
2023/09/08 01:30:19;;;;;;;10.57;9.10;;;;;;;;;;5022492;28;20201;-74
2023/09/08 01:32:45;;;;;;;10.27;9.27;;;;;;;;;;5028998;28;20652;-74
2023/09/08 01:35:11;;;;;;;11.65;9.30;;;;;;;;;;5043197;28;20192;-74
2023/09/08 01:37:40;;;;;;;10.68;9.57;;;;;;;;;;5029305;28;20201;-74
2023/09/08 01:40:06;;;;;;;12.35;10.18;;;;;;;;;;5029131;28;20186;-74
2023/09/08 01:42:32;;;;;;;12.13;9.52;;;;;;;;;;5028150;28;20285;-74
2023/09/08 01:44:57;;;;;;;10.40;9.23;;;;;;;;;;5026032;28;20690;-74
2023/09/08 01:47:22;;;;;;;14.07;9.40;;;;;;;;;;5027287;28;20213;-74
2023/09/08 01:49:48;;;;;;;12.55;10.00;;;;;;;;;;5023039;28;20194;-74
2023/09/08 01:52:13;;;;;;;12.35;9.82;;;;;;;;;;5021462;28;20553;-74
2023/09/08 01:54:38;;;;;;;12.90;8.90;;;;;;;;;;5034628;28;20197;-74
2023/09/08 01:57:04;;;;;;;13.00;10.27;;;;;;;;;;5018435;28;20222;-74
2023/09/08 01:59:29;;;;;;;11.80;9.63;;;;;;;;;;5026789;28;20179;-74
2023/09/08 02:01:55;;;;;;;13.15;10.80;;;;;;;;;;5024223;28;20206;-74
2023/09/08 02:04:20;;;;;;;16.50;10.10;;;;;;;;;;5017965;28;20205;-74
2023/09/08 02:06:45;;;;;;;11.23;9.98;;;;;;;;;;5028487;28;20206;-74
2023/09/08 02:09:14;;;;;;;16.98;10.20;;;;;;;;;;5014024;28;20204;-74
2023/09/08 02:11:39;;;;;;;13.73;10.60;;;;;;;;;;5027458;28;20226;-74
2023/09/08 02:14:05;;;;;;;16.67;11.32;;;;;;;;;;5022486;28;20678;-73
2023/09/08 02:16:30;;;;;;;12.60;10.23;;;;;;;;;;5017260;28;20244;-74
2023/09/08 02:18:55;;;;;;;11.45;9.85;;;;;;;;;;5036509;28;20314;-74
2023/09/08 02:21:21;;;;;;;12.98;10.60;;;;;;;;;;5024286;28;20252;-74
2023/09/08 02:23:46;;;;;;;12.15;10.13;;;;;;;;;;5030632;28;20502;-74
2023/09/08 02:26:12;;;;;;;11.52;10.30;;;;;;;;;;5033074;28;20193;-73
2023/09/08 02:28:37;;;;;;;13.70;11.25;;;;;;;;;;5022270;28;20240;-73
2023/09/08 02:31:03;;;;;;;18.23;10.85;;;;;;;;;;5021660;28;20554;-73
2023/09/08 02:33:28;;;;;;;15.32;10.65;;;;;;;;;;5020532;28;20269;-73
2023/09/08 02:35:54;;;;;;;14.07;11.05;;;;;;;;;;5024849;28;20282;-74
2023/09/08 02:38:19;;;;;;;16.27;11.40;;;;;;;;;;5025679;28;20191;-73
2023/09/08 02:40:44;;;;;;;14.15;10.65;;;;;;;;;;5024358;28;20197;-73
2023/09/08 02:43:10;;;;;;;12.80;10.52;;;;;;;;;;5032523;28;20238;-73
2023/09/08 02:45:35;;;;;;;13.77;11.43;;;;;;;;;;5024490;28;20657;-73
2023/09/08 02:48:01;;;;;;;13.48;10.73;;;;;;;;;;5028854;28;20313;-73
2023/09/08 02:50:26;;;;;;;14.52;11.10;;;;;;;;;;5031089;28;20198;-73
2023/09/08 02:52:52;;;;;;;13.85;11.30;;;;;;;;;;5016429;28;20197;-73
2023/09/08 02:55:17;;;;;;;15.55;10.88;;;;;;;;;;5022650;28;20608;-73
2023/09/08 02:57:42;;;;;;;15.30;10.48;;;;;;;;;;5021777;28;20194;-73
2023/09/08 03:00:08;;;;;;;13.32;11.27;;;;;;;;;;5022931;28;20217;-73
2023/09/08 03:02:34;;;;;;;14.88;11.07;;;;;;;;;;5031387;28;20217;-73
2023/09/08 03:05:00;;;;;;;14.52;12.32;;;;;;;;;;5019435;28;20202;-73
2023/09/08 03:07:26;;;;;;;13.05;11.70;;;;;;;;;;5024466;28;20232;-73
2023/09/08 03:09:51;;;;;;;16.20;11.77;;;;;;;;;;5027194;28;20195;-73
2023/09/08 03:12:17;;;;;;;15.18;11.57;;;;;;;;;;5030227;28;20207;-73
2023/09/08 03:14:42;;;;;;;12.95;11.52;;;;;;;;;;5027493;28;20194;-72
2023/09/08 03:17:07;;;;;;;14.77;11.43;;;;;;;;;;5026944;28;20216;-73
2023/09/08 03:19:33;;;;;;;14.73;11.68;;;;;;;;;;5010742;28;20224;-73
2023/09/08 03:21:58;;;;;;;14.18;11.63;;;;;;;;;;5030034;28;20225;-73
2023/09/08 03:24:24;;;;;;;14.98;11.75;;;;;;;;;;5031830;28;20194;-73
2023/09/08 03:26:49;;;;;;;15.55;12.70;;;;;;;;;;5023741;28;20221;-73
2023/09/08 03:29:14;;;;;;;13.52;12.10;;;;;;;;;;5026603;28;20209;-73
2023/09/08 03:31:40;;;;;;;15.13;12.75;;;;;;;;;;5027368;28;20213;-73
2023/09/08 03:34:05;;;;;;;15.48;12.75;;;;;;;;;;5018324;28;20352;-74
2023/09/08 03:36:31;;;;;;;16.45;13.20;;;;;;;;;;5024798;28;20485;-74
2023/09/08 03:38:58;;;;;;;14.27;11.93;;;;;;;;;;5028871;28;20218;-74
2023/09/08 03:41:23;;;;;;;16.60;12.63;;;;;;;;;;5021008;28;20178;-74
2023/09/08 03:43:49;;;;;;;14.05;12.35;;;;;;;;;;5018622;28;20281;-74
2023/09/08 03:46:14;;;;;;;16.80;12.82;;;;;;;;;;5028270;28;20222;-74
2023/09/08 03:48:39;;;;;;;15.60;13.25;;;;;;;;;;5020231;28;20218;-74
2023/09/08 03:51:05;;;;;;;20.60;13.32;;;;;;;;;;5019415;28;20276;-74
2023/09/08 03:53:31;;;;;;;16.75;13.55;;;;;;;;;;5022648;28;20214;-74
2023/09/08 03:55:56;;;;;;;17.75;13.88;;;;;;;;;;5026227;28;20186;-74
2023/09/08 03:58:21;;;;;;;19.42;13.63;;;;;;;;;;5010527;28;20257;-74
2023/09/08 04:00:47;;;;;;;16.55;13.68;;;;;;;;;;5017737;28;20207;-74
2023/09/08 04:03:12;;;;;;;20.88;14.52;;;;;;;;;;5028370;28;20178;-74
2023/09/08 04:05:38;;;;;;;17.48;13.70;;;;;;;;;;5030655;28;20282;-74
2023/09/08 04:08:03;;;;;;;17.65;13.82;;;;;;;;;;5027588;28;20293;-74
2023/09/08 04:10:29;;;;;;;17.38;13.90;;;;;;;;;;5031954;28;20197;-74
2023/09/08 04:12:54;;;;;;;15.40;13.23;;;;;;;;;;5024034;28;20194;-74
2023/09/08 04:15:19;;;;;;;18.92;14.30;;;;;;;;;;5024946;28;20631;-74
2023/09/08 04:17:45;;;;;;;17.95;13.73;;;;;;;;;;5038982;28;20268;-74
2023/09/08 04:20:11;;;;;;;16.05;14.02;;;;;;;;;;5021939;28;20190;-73
2023/09/08 04:22:36;;;;;;;17.15;14.57;;;;;;;;;;5026478;28;20269;-74
2023/09/08 04:25:02;;;;;;;15.70;14.02;;;;;;;;;;5027897;28;20198;-74
2023/09/08 04:27:27;;;;;;;17.50;13.43;;;;;;;;;;5012077;28;20206;-74
2023/09/08 04:29:53;;;;;;;16.42;13.60;;;;;;;;;;5026155;28;20415;-74
2023/09/08 04:32:18;;;;;;;17.00;13.45;;;;;;;;;;5014937;28;20182;-74
2023/09/08 04:34:44;;;;;;;15.23;13.00;;;;;;;;;;5021966;28;20201;-74
2023/09/08 04:37:09;;;;;;;16.88;14.05;;;;;;;;;;5015922;28;20667;-74
2023/09/08 04:39:36;;;;;;;16.30;13.30;;;;;;;;;;5026201;28;20239;-74
2023/09/08 04:42:02;;;;;;;15.48;13.57;;;;;;;;;;4999138;28;20206;-74
2023/09/08 04:44:28;;;;;;;17.73;14.15;;;;;;;;;;5023556;28;20454;-74
2023/09/08 04:46:54;;;;;;;17.83;14.18;;;;;;;;;;5028388;28;20248;-74
2023/09/08 04:49:20;;;;;;;18.38;13.13;;;;;;;;;;5016865;28;20194;-74
2023/09/08 04:51:45;;;;;;;17.50;13.88;;;;;;;;;;5030247;28;20202;-74
2023/09/08 04:54:11;;;;;;;17.60;14.68;;;;;;;;;;5025069;28;20280;-74
2023/09/08 04:56:36;;;;;;;15.77;13.57;;;;;;;;;;5028979;28;20196;-74
2023/09/08 04:59:02;;;;;;;16.75;13.60;;;;;;;;;;5028514;28;20275;-73
2023/09/08 05:01:28;;;;;;;17.17;14.30;;;;;;;;;;5037968;28;20195;-74
2023/09/08 05:03:55;;;;;;;15.85;14.15;;;;;;;;;;5019378;28;20217;-74
2023/09/08 05:06:20;;;;;;;18.67;14.50;;;;;;;;;;5023800;28;20561;-74
2023/09/08 05:08:45;;;;;;;15.50;13.90;;;;;;;;;;5025048;28;20213;-73
2023/09/08 05:11:11;;;;;;;18.10;14.35;;;;;;;;;;5005649;28;20276;-73
2023/09/08 05:13:36;;;;;;;16.95;14.98;;;;;;;;;;5016420;28;20317;-74
2023/09/08 05:16:10;;;;;;;17.92;15.32;;;;;;;;;;5027268;28;20285;-74
2023/09/08 05:18:38;;;;;;;20.08;15.55;;;;;;;;;;5020454;28;20291;-74
2023/09/08 05:21:03;;;;;;;17.27;15.32;;;;;;;;;;5027351;28;20256;-74
2023/09/08 05:23:29;;;;;;;19.90;15.00;;;;;;;;;;5022327;28;20186;-73
2023/09/08 05:25:55;;;;;;;20.40;14.82;;;;;;;;;;5014061;28;20198;-73
2023/09/08 05:28:20;;;;;;;19.25;15.13;;;;;;;;;;5022394;28;20625;-74
2023/09/08 05:30:45;;;;;;;19.10;14.32;;;;;;;;;;5023254;28;20272;-73
2023/09/08 05:33:11;;;;;;;19.70;15.10;;;;;;;;;;5025686;28;20204;-74
2023/09/08 05:35:36;;;;;;;21.35;14.73;;;;;;;;;;5024520;28;20190;-74
2023/09/08 05:38:02;;;;;;;18.75;14.82;;;;;;;;;;5026558;28;20221;-73
2023/09/08 05:40:27;;;;;;;19.40;15.15;;;;;;;;;;5021393;28;20190;-74
2023/09/08 05:42:53;;;;;;;17.33;15.20;;;;;;;;;;5021093;28;20195;-74
2023/09/08 05:45:19;;;;;;;18.95;14.80;;;;;;;;;;5020688;28;20186;-74
2023/09/08 05:47:44;;;;;;;16.83;14.65;;;;;;;;;;5016287;28;20217;-74
2023/09/08 05:50:10;;;;;;;24.00;16.02;;;;;;;;;;5027459;28;20625;-74
2023/09/08 05:52:36;;;;;;;18.25;15.27;;;;;;;;;;5024619;28;20350;-74
2023/09/08 05:55:01;;;;;;;16.73;15.00;;;;;;;;;;5027714;28;20186;-74
2023/09/08 05:57:26;;;;;;;23.63;15.23;;;;;;;;;;5023177;28;20304;-74
2023/09/08 05:59:52;;;;;;;18.98;14.93;;;;;;;;;;5029356;28;20202;-74
2023/09/08 06:02:17;;;;;;;17.23;14.45;;;;;;;;;;5020584;28;20272;-74
2023/09/08 06:04:43;;;;;;;19.13;15.07;;;;;;;;;;5024222;28;20646;-74
2023/09/08 06:07:08;;;;;;;19.42;15.20;;;;;;;;;;5023436;28;20215;-74
2023/09/08 06:09:33;;;;;;;19.10;15.27;;;;;;;;;;5026644;28;20576;-74
2023/09/08 06:11:59;;;;;;;19.92;14.88;;;;;;;;;;5022307;28;20619;-74
2023/09/08 06:14:24;;;;;;;17.40;14.93;;;;;;;;;;5025987;28;20194;-74
2023/09/08 06:16:49;;;;;;;16.70;14.07;;;;;;;;;;5029440;28;20268;-73
2023/09/08 06:19:15;;;;;;;16.48;13.40;;;;;;;;;;5022008;28;20186;-74
2023/09/08 06:21:40;;;;;;;15.50;13.73;;;;;;;;;;5028547;28;20252;-74
2023/09/08 06:24:06;;;;;;;17.02;14.57;;;;;;;;;;5024088;28;20196;-74
2023/09/08 06:26:31;;;;;;;21.08;14.98;;;;;;;;;;5029707;28;20669;-74
2023/09/08 06:28:57;;;;;;;17.80;14.38;;;;;;;;;;5024652;28;20325;-74
2023/09/08 06:31:22;;;;;;;20.85;14.38;;;;;;;;;;5025361;28;20190;-74
2023/09/08 06:33:51;;;;;;;18.35;13.15;;;;;;;;;;5022504;28;20281;-74
2023/09/08 06:36:17;;;;;;;15.30;13.27;;;;;;;;;;5029835;28;20194;-74
2023/09/08 06:38:42;;;;;;;16.35;13.85;;;;;;;;;;5026368;28;20198;-74
2023/09/08 06:41:12;;;;;;;15.27;13.68;;;;;;;;;;5011331;28;20665;-74
2023/09/08 06:43:38;;;;;;;16.67;13.43;;;;;;;;;;5024248;28;20313;-74
2023/09/08 06:46:04;;;;;;;14.93;13.05;;;;;;;;;;5012699;28;20308;-74
2023/09/08 06:48:29;;;;;;;17.08;13.55;;;;;;;;;;5009254;28;20221;-74
2023/09/08 06:50:56;;;;;;;16.20;13.40;;;;;;;;;;5024316;28;20202;-73
2023/09/08 06:53:24;;;;;;;17.92;12.95;;;;;;;;;;5035433;28;20209;-73
2023/09/08 06:55:49;;;;;;;16.20;12.88;;;;;;;;;;5024470;28;20731;-73
2023/09/08 06:58:15;;;;;;;16.25;12.23;;;;;;;;;;5022736;28;20212;-73
2023/09/08 07:00:41;;;;;;;17.13;13.27;;;;;;;;;;5028250;28;20536;-73
2023/09/08 07:03:08;;;;;;;17.00;12.32;;;;;;;;;;5023251;28;20273;-74
2023/09/08 07:05:33;;;;;;;15.10;12.40;;;;;;;;;;5024716;28;20213;-74
2023/09/08 07:07:59;;;;;;;14.98;12.63;;;;;;;;;;5030034;28;20767;-73
2023/09/08 07:10:24;;;;;;;20.73;12.13;;;;;;;;;;5030601;28;20182;-73
2023/09/08 07:12:49;;;;;;;18.50;11.98;;;;;;;;;;5029035;28;20445;-73
2023/09/08 07:15:15;;;;;;;16.67;11.50;;;;;;;;;;5016161;28;20562;-73
2023/09/08 07:17:41;;;;;;;14.18;11.75;;;;;;;;;;5031860;28;20547;-74
2023/09/08 07:20:07;;;;;;;12.18;10.80;;;;;;;;;;5021861;28;20182;-73
2023/09/08 07:22:32;;;;;;;15.30;10.98;;;;;;;;;;5019781;28;20194;-73
2023/09/08 07:24:58;;;;;;;18.90;11.52;;;;;;;;;;5019854;28;20325;-73
2023/09/08 07:27:23;;;;;;;13.70;10.20;;;;;;;;;;5018287;28;20698;-73
2023/09/08 07:29:49;;;;;;;15.20;11.13;;;;;;;;;;5021737;28;20201;-73
2023/09/08 07:32:18;;;;;;;12.45;10.13;;;;;;;;;;5020804;28;20197;-73
2023/09/08 07:34:43;;;;;;;13.77;11.15;;;;;;;;;;5020851;28;20214;-73
2023/09/08 07:37:09;;;;;;;13.38;10.73;;;;;;;;;;5020820;28;20248;-73
2023/09/08 07:39:35;;;;;;;11.57;10.32;;;;;;;;;;5018820;28;20635;-73
2023/09/08 07:42:01;;;;;;;13.80;10.00;;;;;;;;;;5023718;28;20185;-73
2023/09/08 07:44:26;;;;;;;14.55;9.82;;;;;;;;;;5027457;28;20594;-73
2023/09/08 07:46:51;;;;;;;13.43;10.30;;;;;;;;;;5029807;28;20190;-72
2023/09/08 07:49:19;;;;;;;19.70;9.77;;;;;;;;;;5028831;28;20205;-73
2023/09/08 07:51:44;;;;;;;10.90;9.57;;;;;;;;;;5025615;28;20187;-73
2023/09/08 07:54:10;;;;;;;9.63;8.02;;;;;;;;;;5019395;28;20209;-73
2023/09/08 07:56:35;;;;;;;11.57;8.60;;;;;;;;;;5021304;28;20204;-73
2023/09/08 07:59:01;;;;;;;12.27;7.57;;;;;;;;;;5032713;28;20324;-73
2023/09/08 08:01:26;;;;;;;9.40;8.02;;;;;;;;;;5027412;28;20542;-73
2023/09/08 08:03:51;;;;;;;14.15;9.05;;;;;;;;;;5026604;28;20222;-73
2023/09/08 08:06:17;;;;;;;9.90;7.75;;;;;;;;;;5035157;28;20280;-73
2023/09/08 08:08:42;;;;;;;10.57;7.70;;;;;;;;;;5027463;28;20218;-73
2023/09/08 08:11:17;;;;;;;10.43;7.60;;;;;;;;;;5030577;28;20194;-73
2023/09/08 08:13:43;;;;;;;10.43;7.15;;;;;;;;;;5024172;28;20190;-73
2023/09/08 08:16:09;;;;;;;9.27;6.97;;;;;;;;;;5023171;28;20196;-74
2023/09/08 08:18:34;;;;;;;7.60;5.93;;;;;;;;;;5022992;28;20210;-74
2023/09/08 08:21:00;;;;;;;6.90;5.28;;;;;;;;;;5021339;28;20212;-73
2023/09/08 08:23:26;;;;;;;9.18;5.90;;;;;;;;;;5027359;28;20178;-74
2023/09/08 08:25:51;;;;;;;16.83;5.78;;;;;;;;;;5037370;28;20189;-73
2023/09/08 08:28:17;;;;;;;10.38;5.40;;;;;;;;;;5024447;28;20253;-74
2023/09/08 08:30:42;;;;;;;8.35;4.82;;;;;;;;;;5021039;28;20531;-73
2023/09/08 08:33:07;;;;;;;9.90;4.82;;;;;;;;;;5014595;28;20194;-73
2023/09/08 08:35:33;;;;;;;7.00;4.82;;;;;;;;;;5013830;28;20724;-74
2023/09/08 08:38:00;;;;;;;9.73;4.85;;;;;;;;;;5017531;28;20257;-74
2023/09/08 08:40:26;;;;;;;8.32;4.97;;;;;;;;;;5026309;28;20256;-74
2023/09/08 08:42:56;;;;;;;8.07;5.20;;;;;;;;;;5029043;28;20190;-74
2023/09/08 08:45:24;;;;;;;7.30;4.57;;;;;;;;;;5043785;28;20190;-74
2023/09/08 08:47:50;;;;;;;9.20;5.13;;;;;;;;;;5033434;28;20681;-74
2023/09/08 08:50:17;;;;;;;7.65;4.53;;;;;;;;;;5019671;28;20190;-73
2023/09/08 08:52:43;;;;;;;6.53;3.97;;;;;;;;;;5039407;28;20252;-72
2023/09/08 08:55:09;;;;;;;5.38;4.47;;;;;;;;;;5030701;28;20190;-73
2023/09/08 08:57:39;;;;;;;6.20;4.57;;;;;;;;;;5029105;28;20194;-73
2023/09/08 09:00:15;;;;;;;5.68;4.57;;;;;;;;;;5030511;28;20247;-73
2023/09/08 09:02:42;;;;;;;7.25;4.90;;;;;;;;;;5028572;28;20657;-73
2023/09/08 09:05:14;;;;;;;5.28;4.68;;;;;;;;;;5038482;28;20281;-70
2023/09/08 09:07:43;;;;;;;8.75;4.55;;;;;;;;;;5024198;28;20214;-71
2023/09/08 09:10:09;;;;;;;8.85;4.72;;;;;;;;;;4998822;28;20297;-71
2023/09/08 09:12:37;;;;;;;8.38;4.93;;;;;;;;;;5030650;28;20225;-72
2023/09/08 09:15:04;;;;;;;9.63;4.93;;;;;;;;;;5025679;28;20189;-73
2023/09/08 09:17:30;;;;;;;10.00;4.97;;;;;;;;;;5028863;28;20588;-72
2023/09/08 09:20:15;;;;;;;7.70;5.03;;;;;;;;;;5028908;28;20606;-72
2023/09/08 09:22:40;;;;;;;6.13;5.20;;;;;;;;;;5026799;28;20733;-72
2023/09/08 09:25:07;;;;;;;6.03;4.78;;;;;;;;;;5029281;28;20269;-72
2023/09/08 09:27:33;;;;;;;7.20;4.80;;;;;;;;;;5012340;28;20210;-72
2023/09/08 09:29:59;;;;;;;7.10;4.97;;;;;;;;;;5041935;28;20182;-73
2023/09/08 09:32:25;;;;;;;6.38;5.00;;;;;;;;;;5021642;28;20200;-72
2023/09/08 09:34:54;;;;;;;9.93;4.93;;;;;;;;;;5029262;28;20268;-72
2023/09/08 09:37:19;;;;;;;11.40;5.00;;;;;;;;;;5026137;28;20286;-73
2023/09/08 09:39:49;;;;;;;5.75;4.90;;;;;;;;;;5022279;28;20264;-73
2023/09/08 09:42:15;;;;;;;5.43;4.93;;;;;;;;;;5027501;28;20574;-72
2023/09/08 09:44:40;;;;;;;7.43;5.30;;;;;;;;;;5011908;28;20242;-73
2023/09/08 09:47:06;;;;;;;9.68;4.82;;;;;;;;;;5023268;28;20237;-73
2023/09/08 09:49:32;;;;;;;9.25;5.10;;;;;;;;;;5027904;28;20190;-73
2023/09/08 09:51:58;;;;;;;9.23;5.20;;;;;;;;;;5038935;28;20608;-72
2023/09/08 09:54:23;;;;;;;6.63;5.22;;;;;;;;;;5010098;28;20709;-73
2023/09/08 09:56:51;;;;;;;5.30;4.75;;;;;;;;;;5014445;28;20293;-73
2023/09/08 09:59:17;;;;;;;8.25;5.18;;;;;;;;;;5027422;28;20212;-73
2023/09/08 10:01:43;;;;;;;7.57;5.15;;;;;;;;;;5010584;28;20190;-73
2023/09/08 10:04:09;;;;;;;6.40;5.00;;;;;;;;;;5028874;28;20190;-73
2023/09/08 10:06:36;;;;;;;7.45;5.10;;;;;;;;;;5030688;28;20277;-73
2023/09/08 10:09:08;;;;;;;8.95;4.80;;;;;;;;;;5028305;28;20583;-73
2023/09/08 10:11:48;;;;;;;6.38;5.00;;;;;;;;;;5021113;28;20703;-73
2023/09/08 10:14:18;;;;;;;8.52;4.40;;;;;;;;;;5024530;28;20221;-72
2023/09/08 10:16:49;;;;;;;5.63;5.03;;;;;;;;;;5016589;28;20194;-73
2023/09/08 10:19:16;;;;;;;7.45;5.30;;;;;;;;;;5026658;28;20190;-73
2023/09/08 10:21:44;;;;;;;6.95;4.82;;;;;;;;;;5015590;28;20186;-72
2023/09/08 10:24:22;;;;;;;6.20;5.10;;;;;;;;;;5029382;28;20194;-73
2023/09/08 10:27:09;;;;;;;5.90;4.93;;;;;;;;;;5028482;28;20186;-73
2023/09/08 10:29:35;;;;;;;7.10;4.78;;;;;;;;;;5020435;28;20190;-72
2023/09/08 10:32:02;;;;;;;7.38;5.10;;;;;;;;;;5027784;28;20649;-72
2023/09/08 10:34:28;;;;;;;7.32;4.70;;;;;;;;;;5031684;28;20181;-73
2023/09/08 10:36:54;;;;;;;6.88;4.70;;;;;;;;;;5017569;28;20194;-72
2023/09/08 10:39:39;;;;;;;6.45;4.75;;;;;;;;;;5023086;28;20740;-73
2023/09/08 10:42:16;;;;;;;8.55;4.90;;;;;;;;;;5018506;28;20231;-73
2023/09/08 10:44:49;;;;;;;8.63;4.80;;;;;;;;;;5035767;28;20654;-73
2023/09/08 10:47:18;;;;;;;5.82;4.85;;;;;;;;;;5042207;28;20222;-73
2023/09/08 10:49:43;;;;;;;8.35;4.70;;;;;;;;;;5012853;28;20221;-73
2023/09/08 10:52:10;;;;;;;9.55;4.57;;;;;;;;;;5017546;28;20604;-72
2023/09/08 10:54:48;;;;;;;6.82;4.40;;;;;;;;;;5027905;28;20187;-72
2023/09/08 10:57:19;;;;;;;7.05;4.80;;;;;;;;;;5026012;28;20205;-72
2023/09/08 10:59:53;;;;;;;6.80;4.60;;;;;;;;;;5030294;28;20268;-73
2023/09/08 11:02:41;;;;;;;7.60;4.82;;;;;;;;;;5017874;28;20676;-73
2023/09/08 11:05:08;;;;;;;7.60;4.40;;;;;;;;;;5034598;28;20186;-72
2023/09/08 11:07:36;;;;;;;8.02;5.13;;;;;;;;;;5032262;28;20214;-71
2023/09/08 11:10:01;;;;;;;7.22;4.82;;;;;;;;;;5017902;28;20190;-72
2023/09/08 11:12:30;;;;;;;5.53;4.70;;;;;;;;;;5032151;28;20197;-72
2023/09/08 11:14:56;;;;;;;5.32;4.82;;;;;;;;;;5019440;28;20186;-73
2023/09/08 11:17:25;;;;;;;6.68;5.05;;;;;;;;;;5016231;28;20194;-74
2023/09/08 11:19:51;;;;;;;7.10;4.53;;;;;;;;;;5018408;28;20194;-73
2023/09/08 11:22:17;;;;;;;6.13;4.63;;;;;;;;;;5042764;28;20186;-73
2023/09/08 11:24:44;;;;;;;6.43;4.53;;;;;;;;;;5031784;28;20190;-73
2023/09/08 11:27:11;;;;;;;10.35;5.07;;;;;;;;;;5031081;28;20213;-73
2023/09/08 11:29:36;;;;;;;9.00;4.93;;;;;;;;;;5027668;28;20225;-72
2023/09/08 11:32:05;;;;;;;7.60;5.05;;;;;;;;;;5015709;28;20190;-73
2023/09/08 11:34:31;;;;;;;7.60;4.55;;;;;;;;;;5031841;28;20190;-73
2023/09/08 11:36:57;;;;;;;6.45;4.70;;;;;;;;;;5029385;28;20567;-73
2023/09/08 11:39:25;;;;;;;6.90;4.80;;;;;;;;;;5030658;28;20205;-74
2023/09/08 11:41:52;;;;;;;7.32;4.63;;;;;;;;;;5026798;28;20191;-72
2023/09/08 11:44:18;;;;;;;6.07;4.97;;;;;;;;;;5027282;28;20225;-73
2023/09/08 11:46:44;;;;;;;5.57;4.85;;;;;;;;;;5022748;28;20190;-74
2023/09/08 11:49:10;;;;;;;6.45;4.47;;;;;;;;;;5025516;28;20217;-74
2023/09/08 11:51:36;;;;;;;8.98;4.60;;;;;;;;;;5028677;28;20202;-73
2023/09/08 11:54:02;;;;;;;6.53;4.80;;;;;;;;;;5029213;28;20190;-73
2023/09/08 11:56:27;;;;;;;5.40;4.60;;;;;;;;;;4330886;28;10000780;-73
2023/09/08 11:58:53;;;;;;;6.43;4.97;;;;;;;;;;5013978;28;20206;-74
2023/09/08 12:01:19;;;;;;;6.95;4.68;;;;;;;;;;5016252;28;20685;-73
2023/09/08 12:03:53;;;;;;;6.38;4.35;;;;;;;;;;5021497;28;20270;-73
2023/09/08 12:06:19;;;;;;;5.35;4.78;;;;;;;;;;5021049;28;20193;-74
2023/09/08 12:08:45;;;;;;;8.75;4.75;;;;;;;;;;5026237;28;20260;-73
2023/09/08 12:11:11;;;;;;;5.10;4.60;;;;;;;;;;5024439;28;20615;-74
2023/09/08 12:13:36;;;;;;;6.75;4.78;;;;;;;;;;5039315;28;20193;-73
2023/09/08 12:16:01;;;;;;;7.80;4.63;;;;;;;;;;5009621;28;20198;-73
2023/09/08 12:18:40;;;;;;;8.05;5.07;;;;;;;;;;5014219;28;20515;-72
2023/09/08 12:21:05;;;;;;;8.80;4.82;;;;;;;;;;5019682;28;20696;-73
2023/09/08 12:23:31;;;;;;;9.13;5.15;;;;;;;;;;5021993;28;20182;-75
2023/09/08 12:25:57;;;;;;;7.32;4.82;;;;;;;;;;5026888;28;20214;-73
2023/09/08 12:28:23;;;;;;;6.65;5.03;;;;;;;;;;5025412;28;20759;-72
2023/09/08 12:30:52;;;;;;;6.72;4.93;;;;;;;;;;5013649;28;20198;-72
2023/09/08 12:33:19;;;;;;;7.60;4.72;;;;;;;;;;5019574;28;20221;-72
2023/09/08 12:35:48;;;;;;;5.72;4.93;;;;;;;;;;5019896;28;20198;-72
2023/09/08 12:38:13;;;;;;;7.60;5.20;;;;;;;;;;5026728;28;20256;-72
2023/09/08 12:40:39;;;;;;;6.90;5.57;;;;;;;;;;5016182;28;20605;-73
2023/09/08 12:43:05;;;;;;;7.75;4.90;;;;;;;;;;5007845;28;20324;-72
2023/09/08 12:45:32;;;;;;;5.70;4.60;;;;;;;;;;5023079;28;20193;-72
2023/09/08 12:48:01;;;;;;;6.35;4.68;;;;;;;;;;5022125;28;20214;-73
2023/09/08 12:50:27;;;;;;;7.32;4.72;;;;;;;;;;5021521;28;20208;-73
2023/09/08 12:52:53;;;;;;;6.50;5.20;;;;;;;;;;5026025;28;20186;-72
2023/09/08 12:55:18;;;;;;;6.13;4.65;;;;;;;;;;5014924;28;20202;-71
2023/09/08 12:57:43;;;;;;;6.63;4.38;;;;;;;;;;5021800;28;20243;-71
2023/09/08 13:00:09;;;;;;;10.05;4.97;;;;;;;;;;5011319;28;20190;-72
2023/09/08 13:02:35;;;;;;;8.25;4.78;;;;;;;;;;5022183;28;20571;-71
2023/09/08 13:05:01;;;;;;;6.25;4.38;;;;;;;;;;5026558;28;20269;-71
2023/09/08 13:07:27;;;;;;;6.35;4.25;;;;;;;;;;5037513;28;20225;-72
2023/09/08 13:09:52;;;;;;;5.57;4.38;;;;;;;;;;5021883;28;20584;-71
2023/09/08 13:12:18;;;;;;;6.38;4.75;;;;;;;;;;5027394;28;20194;-72
2023/09/08 13:14:43;;;;;;;8.57;5.13;;;;;;;;;;5023664;28;20495;-73
2023/09/08 13:17:10;;;;;;;7.05;4.60;;;;;;;;;;5023740;28;20241;-71
2023/09/08 13:19:37;;;;;;;6.93;5.03;;;;;;;;;;5026783;28;20273;-73
2023/09/08 13:22:03;;;;;;;6.72;5.05;;;;;;;;;;5023317;28;20651;-72
2023/09/08 13:24:28;;;;;;;5.85;5.00;;;;;;;;;;5021155;28;20252;-72
2023/09/08 13:26:54;;;;;;;6.25;4.88;;;;;;;;;;5023589;28;20205;-73
2023/09/08 13:29:19;;;;;;;8.23;4.80;;;;;;;;;;5037721;28;20205;-72
2023/09/08 13:31:45;;;;;;;5.50;4.65;;;;;;;;;;5024268;28;20217;-72
2023/09/08 13:34:10;;;;;;;5.55;4.85;;;;;;;;;;5024520;28;20194;-73
2023/09/08 13:36:36;;;;;;;6.43;4.70;;;;;;;;;;5024712;28;20202;-73
2023/09/08 13:39:02;;;;;;;5.85;4.53;;;;;;;;;;5038707;28;20185;-72
2023/09/08 13:41:46;;;;;;;9.52;5.78;;;;;;;;;;5023507;28;20196;-72
2023/09/08 13:44:11;;;;;;;9.65;5.43;;;;;;;;;;5018220;28;20313;-72
2023/09/08 13:46:37;;;;;;;6.38;5.25;;;;;;;;;;5021090;28;20746;-72
2023/09/08 13:49:02;;;;;;;6.32;5.30;;;;;;;;;;5020128;28;20222;-71
2023/09/08 13:51:28;;;;;;;6.15;5.05;;;;;;;;;;5027519;28;20200;-72
2023/09/08 13:53:53;;;;;;;5.57;4.97;;;;;;;;;;5020800;28;20199;-72
2023/09/08 13:56:19;;;;;;;10.63;5.45;;;;;;;;;;5021646;28;20554;-70
2023/09/08 13:58:45;;;;;;;9.57;5.18;;;;;;;;;;5004853;28;20193;-71
2023/09/08 14:01:11;;;;;;;5.40;4.90;;;;;;;;;;5021076;28;20194;-71
2023/09/08 14:03:36;;;;;;;8.88;4.75;;;;;;;;;;5028981;28;20664;-71
2023/09/08 14:06:01;;;;;;;5.97;5.10;;;;;;;;;;5024530;28;20186;-72
2023/09/08 14:08:27;;;;;;;5.55;5.00;;;;;;;;;;5030794;28;20336;-72
2023/09/08 14:10:53;;;;;;;7.78;5.13;;;;;;;;;;4714673;28;10000616;-72
2023/09/08 14:13:19;;;;;;;9.73;4.88;;;;;;;;;;5021610;28;20835;-71
2023/09/08 14:15:44;;;;;;;8.60;5.28;;;;;;;;;;5021047;28;20595;-72
2023/09/08 14:18:10;;;;;;;7.05;4.80;;;;;;;;;;5017481;28;20662;-71
2023/09/08 14:20:35;;;;;;;5.97;4.70;;;;;;;;;;5022987;28;20224;-72
2023/09/08 14:23:00;;;;;;;7.28;4.82;;;;;;;;;;5023008;28;20190;-71
2023/09/08 14:25:26;;;;;;;6.25;4.82;;;;;;;;;;5023946;28;20228;-72
2023/09/08 14:27:51;;;;;;;7.43;5.47;;;;;;;;;;5020101;28;20798;-71